sensor_id;sensor_type;location;lat;lon;timestamp;P1;durP1;ratioP1;P2;durP2;ratioP2
66870;SDS011;53780;44.998;9.926;2023-04-24T00:02:53;5.35;;;2.22;;
66870;SDS011;53780;44.998;9.926;2023-04-24T00:06:00;7.72;;;2.60;;
66870;SDS011;53780;44.998;9.926;2023-04-24T00:09:04;6.00;;;2.50;;
66870;SDS011;53780;44.998;9.926;2023-04-24T00:12:08;6.03;;;2.70;;
66870;SDS011;53780;44.998;9.926;2023-04-24T00:15:20;7.00;;;2.73;;
66870;SDS011;53780;44.998;9.926;2023-04-24T00:18:25;5.60;;;2.90;;
66870;SDS011;53780;44.998;9.926;2023-04-24T00:21:28;8.13;;;3.22;;
66870;SDS011;53780;44.998;9.926;2023-04-24T00:24:33;5.78;;;3.10;;
66870;SDS011;53780;44.998;9.926;2023-04-24T00:27:37;7.03;;;3.10;;
66870;SDS011;53780;44.998;9.926;2023-04-24T00:30:42;5.80;;;3.20;;
66870;SDS011;53780;44.998;9.926;2023-04-24T00:33:45;6.65;;;3.10;;
66870;SDS011;53780;44.998;9.926;2023-04-24T00:36:50;7.15;;;3.40;;
66870;SDS011;53780;44.998;9.926;2023-04-24T00:39:55;9.25;;;3.92;;
66870;SDS011;53780;44.998;9.926;2023-04-24T00:42:59;7.57;;;3.00;;
66870;SDS011;53780;44.998;9.926;2023-04-24T00:46:03;8.83;;;3.40;;
66870;SDS011;53780;44.998;9.926;2023-04-24T00:49:07;10.68;;;4.20;;
66870;SDS011;53780;44.998;9.926;2023-04-24T00:52:10;9.38;;;4.10;;
66870;SDS011;53780;44.998;9.926;2023-04-24T00:55:15;9.07;;;3.97;;
66870;SDS011;53780;44.998;9.926;2023-04-24T00:58:19;7.25;;;3.83;;
66870;SDS011;53780;44.998;9.926;2023-04-24T01:01:23;8.87;;;4.47;;
66870;SDS011;53780;44.998;9.926;2023-04-24T01:04:27;7.80;;;3.90;;
66870;SDS011;53780;44.998;9.926;2023-04-24T01:07:32;9.32;;;4.00;;
66870;SDS011;53780;44.998;9.926;2023-04-24T01:10:35;9.93;;;4.30;;
66870;SDS011;53780;44.998;9.926;2023-04-24T01:13:40;8.00;;;3.88;;
66870;SDS011;53780;44.998;9.926;2023-04-24T01:16:47;9.57;;;4.37;;
66870;SDS011;53780;44.998;9.926;2023-04-24T01:19:51;9.73;;;4.40;;
66870;SDS011;53780;44.998;9.926;2023-04-24T01:23:01;9.45;;;4.68;;
66870;SDS011;53780;44.998;9.926;2023-04-24T01:26:05;7.75;;;4.25;;
66870;SDS011;53780;44.998;9.926;2023-04-24T01:29:09;8.93;;;4.68;;
66870;SDS011;53780;44.998;9.926;2023-04-24T01:32:13;10.93;;;4.33;;
66870;SDS011;53780;44.998;9.926;2023-04-24T01:35:17;9.68;;;4.30;;
66870;SDS011;53780;44.998;9.926;2023-04-24T01:38:21;8.85;;;4.32;;
66870;SDS011;53780;44.998;9.926;2023-04-24T01:41:25;11.07;;;4.68;;
66870;SDS011;53780;44.998;9.926;2023-04-24T01:44:29;10.63;;;4.75;;
66870;SDS011;53780;44.998;9.926;2023-04-24T01:47:33;10.83;;;4.50;;
66870;SDS011;53780;44.998;9.926;2023-04-24T01:50:38;9.88;;;4.68;;
66870;SDS011;53780;44.998;9.926;2023-04-24T01:53:42;9.98;;;4.45;;
66870;SDS011;53780;44.998;9.926;2023-04-24T01:56:46;9.80;;;5.05;;
66870;SDS011;53780;44.998;9.926;2023-04-24T01:59:51;9.82;;;5.05;;
66870;SDS011;53780;44.998;9.926;2023-04-24T02:02:55;11.53;;;4.70;;
66870;SDS011;53780;44.998;9.926;2023-04-24T02:05:59;13.57;;;4.93;;
66870;SDS011;53780;44.998;9.926;2023-04-24T02:09:02;9.55;;;4.95;;
66870;SDS011;53780;44.998;9.926;2023-04-24T02:12:06;10.75;;;4.72;;
66870;SDS011;53780;44.998;9.926;2023-04-24T02:15:10;9.95;;;4.78;;
66870;SDS011;53780;44.998;9.926;2023-04-24T02:18:15;10.07;;;4.90;;
66870;SDS011;53780;44.998;9.926;2023-04-24T02:21:20;12.02;;;5.45;;
66870;SDS011;53780;44.998;9.926;2023-04-24T02:24:24;9.05;;;4.43;;
66870;SDS011;53780;44.998;9.926;2023-04-24T02:27:28;12.07;;;5.53;;
66870;SDS011;53780;44.998;9.926;2023-04-24T02:30:31;9.30;;;5.07;;
66870;SDS011;53780;44.998;9.926;2023-04-24T02:33:35;8.80;;;5.13;;
66870;SDS011;53780;44.998;9.926;2023-04-24T02:36:39;12.55;;;5.38;;
66870;SDS011;53780;44.998;9.926;2023-04-24T02:39:42;11.18;;;5.03;;
66870;SDS011;53780;44.998;9.926;2023-04-24T02:42:46;10.93;;;5.68;;
66870;SDS011;53780;44.998;9.926;2023-04-24T02:45:50;10.93;;;5.88;;
66870;SDS011;53780;44.998;9.926;2023-04-24T02:48:54;11.30;;;6.27;;
66870;SDS011;53780;44.998;9.926;2023-04-24T02:51:57;11.40;;;6.43;;
66870;SDS011;53780;44.998;9.926;2023-04-24T02:55:01;11.82;;;6.20;;
66870;SDS011;53780;44.998;9.926;2023-04-24T02:58:06;11.45;;;6.25;;
66870;SDS011;53780;44.998;9.926;2023-04-24T03:01:10;13.25;;;6.47;;
66870;SDS011;53780;44.998;9.926;2023-04-24T03:04:14;10.87;;;6.17;;
66870;SDS011;53780;44.998;9.926;2023-04-24T03:07:19;12.30;;;6.00;;
66870;SDS011;53780;44.998;9.926;2023-04-24T03:10:24;11.15;;;6.10;;
66870;SDS011;53780;44.998;9.926;2023-04-24T03:13:28;12.02;;;5.78;;
66870;SDS011;53780;44.998;9.926;2023-04-24T03:16:31;10.48;;;5.20;;
66870;SDS011;53780;44.998;9.926;2023-04-24T03:19:36;13.57;;;5.30;;
66870;SDS011;53780;44.998;9.926;2023-04-24T03:22:46;10.45;;;5.22;;
66870;SDS011;53780;44.998;9.926;2023-04-24T03:25:50;11.75;;;4.72;;
66870;SDS011;53780;44.998;9.926;2023-04-24T03:28:56;12.20;;;5.28;;
66870;SDS011;53780;44.998;9.926;2023-04-24T03:32:00;10.48;;;5.32;;
66870;SDS011;53780;44.998;9.926;2023-04-24T03:35:05;10.63;;;5.30;;
66870;SDS011;53780;44.998;9.926;2023-04-24T03:38:11;10.18;;;5.30;;
66870;SDS011;53780;44.998;9.926;2023-04-24T03:41:17;10.63;;;5.22;;
66870;SDS011;53780;44.998;9.926;2023-04-24T03:44:27;14.30;;;6.00;;
66870;SDS011;53780;44.998;9.926;2023-04-24T03:47:32;10.43;;;5.65;;
66870;SDS011;53780;44.998;9.926;2023-04-24T03:50:38;12.57;;;5.83;;
66870;SDS011;53780;44.998;9.926;2023-04-24T03:53:43;10.05;;;5.47;;
66870;SDS011;53780;44.998;9.926;2023-04-24T03:56:49;9.95;;;5.47;;
66870;SDS011;53780;44.998;9.926;2023-04-24T03:59:53;12.80;;;6.07;;
66870;SDS011;53780;44.998;9.926;2023-04-24T04:02:57;9.77;;;5.53;;
66870;SDS011;53780;44.998;9.926;2023-04-24T04:06:02;11.33;;;5.83;;
66870;SDS011;53780;44.998;9.926;2023-04-24T04:09:06;11.77;;;5.63;;
66870;SDS011;53780;44.998;9.926;2023-04-24T04:12:10;9.88;;;5.32;;
66870;SDS011;53780;44.998;9.926;2023-04-24T04:15:16;11.43;;;6.32;;
66870;SDS011;53780;44.998;9.926;2023-04-24T04:18:19;10.75;;;5.75;;
66870;SDS011;53780;44.998;9.926;2023-04-24T04:21:23;10.87;;;5.40;;
66870;SDS011;53780;44.998;9.926;2023-04-24T04:24:33;11.38;;;6.10;;
66870;SDS011;53780;44.998;9.926;2023-04-24T04:27:41;12.18;;;6.05;;
66870;SDS011;53780;44.998;9.926;2023-04-24T04:30:47;11.57;;;5.85;;
66870;SDS011;53780;44.998;9.926;2023-04-24T04:33:52;14.30;;;6.57;;
66870;SDS011;53780;44.998;9.926;2023-04-24T04:36:57;13.33;;;6.40;;
66870;SDS011;53780;44.998;9.926;2023-04-24T04:40:27;11.50;;;6.07;;
66870;SDS011;53780;44.998;9.926;2023-04-24T04:43:37;12.07;;;6.63;;
66870;SDS011;53780;44.998;9.926;2023-04-24T04:46:43;11.73;;;6.35;;
66870;SDS011;53780;44.998;9.926;2023-04-24T04:49:58;12.48;;;6.45;;
66870;SDS011;53780;44.998;9.926;2023-04-24T04:53:04;12.53;;;6.43;;
66870;SDS011;53780;44.998;9.926;2023-04-24T04:56:12;11.15;;;6.63;;
66870;SDS011;53780;44.998;9.926;2023-04-24T04:59:22;12.70;;;6.70;;
66870;SDS011;53780;44.998;9.926;2023-04-24T05:02:31;13.05;;;6.85;;
66870;SDS011;53780;44.998;9.926;2023-04-24T05:05:35;13.43;;;6.95;;
66870;SDS011;53780;44.998;9.926;2023-04-24T05:08:38;12.40;;;6.33;;
66870;SDS011;53780;44.998;9.926;2023-04-24T05:11:46;14.52;;;6.90;;
66870;SDS011;53780;44.998;9.926;2023-04-24T05:14:49;11.73;;;6.30;;
66870;SDS011;53780;44.998;9.926;2023-04-24T05:17:53;14.02;;;6.28;;
66870;SDS011;53780;44.998;9.926;2023-04-24T05:20:59;13.18;;;6.57;;
66870;SDS011;53780;44.998;9.926;2023-04-24T05:24:03;12.90;;;6.60;;
66870;SDS011;53780;44.998;9.926;2023-04-24T05:27:39;12.43;;;6.82;;
66870;SDS011;53780;44.998;9.926;2023-04-24T05:30:50;10.80;;;6.28;;
66870;SDS011;53780;44.998;9.926;2023-04-24T05:33:54;10.93;;;6.00;;
66870;SDS011;53780;44.998;9.926;2023-04-24T05:36:57;13.88;;;6.70;;
66870;SDS011;53780;44.998;9.926;2023-04-24T05:40:02;11.90;;;6.97;;
66870;SDS011;53780;44.998;9.926;2023-04-24T05:43:09;11.57;;;6.82;;
66870;SDS011;53780;44.998;9.926;2023-04-24T05:46:12;15.43;;;7.35;;
66870;SDS011;53780;44.998;9.926;2023-04-24T05:49:16;12.35;;;6.75;;
66870;SDS011;53780;44.998;9.926;2023-04-24T05:52:20;13.38;;;7.03;;
66870;SDS011;53780;44.998;9.926;2023-04-24T05:55:26;11.20;;;6.37;;
66870;SDS011;53780;44.998;9.926;2023-04-24T05:58:31;14.73;;;7.18;;
66870;SDS011;53780;44.998;9.926;2023-04-24T06:01:35;15.00;;;7.32;;
66870;SDS011;53780;44.998;9.926;2023-04-24T06:04:49;12.55;;;6.72;;
66870;SDS011;53780;44.998;9.926;2023-04-24T06:07:55;12.48;;;6.93;;
66870;SDS011;53780;44.998;9.926;2023-04-24T06:11:01;13.60;;;6.87;;
66870;SDS011;53780;44.998;9.926;2023-04-24T06:14:06;14.10;;;6.70;;
66870;SDS011;53780;44.998;9.926;2023-04-24T06:17:35;12.75;;;6.13;;
66870;SDS011;53780;44.998;9.926;2023-04-24T06:20:39;12.80;;;6.32;;
66870;SDS011;53780;44.998;9.926;2023-04-24T06:23:46;12.55;;;6.40;;
66870;SDS011;53780;44.998;9.926;2023-04-24T06:26:52;10.70;;;6.13;;
66870;SDS011;53780;44.998;9.926;2023-04-24T06:29:55;12.07;;;6.22;;
66870;SDS011;53780;44.998;9.926;2023-04-24T06:32:59;15.68;;;6.90;;
66870;SDS011;53780;44.998;9.926;2023-04-24T06:36:03;12.10;;;6.90;;
66870;SDS011;53780;44.998;9.926;2023-04-24T06:39:07;13.77;;;6.57;;
66870;SDS011;53780;44.998;9.926;2023-04-24T06:42:11;12.83;;;7.17;;
66870;SDS011;53780;44.998;9.926;2023-04-24T06:45:15;13.55;;;7.05;;
66870;SDS011;53780;44.998;9.926;2023-04-24T06:48:18;14.65;;;6.57;;
66870;SDS011;53780;44.998;9.926;2023-04-24T06:51:26;12.90;;;6.25;;
66870;SDS011;53780;44.998;9.926;2023-04-24T06:54:30;10.77;;;5.85;;
66870;SDS011;53780;44.998;9.926;2023-04-24T06:57:35;9.77;;;5.70;;
66870;SDS011;53780;44.998;9.926;2023-04-24T07:00:39;11.75;;;5.85;;
66870;SDS011;53780;44.998;9.926;2023-04-24T07:03:43;10.70;;;6.03;;
66870;SDS011;53780;44.998;9.926;2023-04-24T07:06:47;11.10;;;6.32;;
66870;SDS011;53780;44.998;9.926;2023-04-24T07:09:52;10.77;;;6.03;;
66870;SDS011;53780;44.998;9.926;2023-04-24T07:12:55;11.70;;;6.80;;
66870;SDS011;53780;44.998;9.926;2023-04-24T07:16:00;11.07;;;6.80;;
66870;SDS011;53780;44.998;9.926;2023-04-24T07:19:06;11.50;;;7.75;;
66870;SDS011;53780;44.998;9.926;2023-04-24T07:22:10;14.07;;;7.50;;
66870;SDS011;53780;44.998;9.926;2023-04-24T07:25:20;10.73;;;7.20;;
66870;SDS011;53780;44.998;9.926;2023-04-24T07:28:24;9.80;;;7.07;;
66870;SDS011;53780;44.998;9.926;2023-04-24T07:31:28;12.77;;;7.90;;
66870;SDS011;53780;44.998;9.926;2023-04-24T07:34:32;11.52;;;7.40;;
66870;SDS011;53780;44.998;9.926;2023-04-24T07:37:36;9.02;;;7.28;;
66870;SDS011;53780;44.998;9.926;2023-04-24T07:40:40;9.90;;;7.20;;
66870;SDS011;53780;44.998;9.926;2023-04-24T07:43:43;11.13;;;7.20;;
66870;SDS011;53780;44.998;9.926;2023-04-24T07:46:47;12.27;;;7.50;;
66870;SDS011;53780;44.998;9.926;2023-04-24T07:49:51;9.88;;;7.00;;
66870;SDS011;53780;44.998;9.926;2023-04-24T07:52:55;10.57;;;7.40;;
66870;SDS011;53780;44.998;9.926;2023-04-24T07:55:59;9.48;;;6.90;;
66870;SDS011;53780;44.998;9.926;2023-04-24T07:59:03;9.97;;;6.57;;
66870;SDS011;53780;44.998;9.926;2023-04-24T08:02:06;8.93;;;6.63;;
66870;SDS011;53780;44.998;9.926;2023-04-24T08:05:11;11.10;;;7.30;;
66870;SDS011;53780;44.998;9.926;2023-04-24T08:08:15;8.85;;;6.97;;
66870;SDS011;53780;44.998;9.926;2023-04-24T08:11:18;9.38;;;7.55;;
66870;SDS011;53780;44.998;9.926;2023-04-24T08:14:22;8.83;;;7.23;;
66870;SDS011;53780;44.998;9.926;2023-04-24T08:17:26;9.98;;;7.70;;
66870;SDS011;53780;44.998;9.926;2023-04-24T08:20:30;10.38;;;6.95;;
66870;SDS011;53780;44.998;9.926;2023-04-24T08:23:33;10.10;;;6.70;;
66870;SDS011;53780;44.998;9.926;2023-04-24T08:26:37;10.00;;;7.40;;
66870;SDS011;53780;44.998;9.926;2023-04-24T08:29:41;14.80;;;6.37;;
66870;SDS011;53780;44.998;9.926;2023-04-24T08:32:45;9.63;;;6.45;;
66870;SDS011;53780;44.998;9.926;2023-04-24T08:35:49;12.20;;;7.70;;
66870;SDS011;53780;44.998;9.926;2023-04-24T08:38:53;9.45;;;6.60;;
66870;SDS011;53780;44.998;9.926;2023-04-24T08:41:57;10.02;;;6.60;;
66870;SDS011;53780;44.998;9.926;2023-04-24T08:45:08;10.40;;;6.87;;
66870;SDS011;53780;44.998;9.926;2023-04-24T08:48:13;10.05;;;6.82;;
66870;SDS011;53780;44.998;9.926;2023-04-24T08:51:18;9.80;;;6.90;;
66870;SDS011;53780;44.998;9.926;2023-04-24T08:54:24;9.60;;;7.65;;
66870;SDS011;53780;44.998;9.926;2023-04-24T08:57:29;9.85;;;7.63;;
66870;SDS011;53780;44.998;9.926;2023-04-24T09:00:34;9.83;;;7.67;;
66870;SDS011;53780;44.998;9.926;2023-04-24T09:03:38;9.80;;;7.38;;
66870;SDS011;53780;44.998;9.926;2023-04-24T09:06:43;10.52;;;8.30;;
66870;SDS011;53780;44.998;9.926;2023-04-24T09:09:48;10.07;;;8.23;;
66870;SDS011;53780;44.998;9.926;2023-04-24T09:12:54;9.90;;;8.40;;
66870;SDS011;53780;44.998;9.926;2023-04-24T09:15:59;11.47;;;8.27;;
66870;SDS011;53780;44.998;9.926;2023-04-24T09:19:04;9.65;;;8.30;;
66870;SDS011;53780;44.998;9.926;2023-04-24T09:22:08;11.43;;;9.43;;
66870;SDS011;53780;44.998;9.926;2023-04-24T09:25:12;10.70;;;9.60;;
66870;SDS011;53780;44.998;9.926;2023-04-24T09:28:16;10.35;;;9.35;;
66870;SDS011;53780;44.998;9.926;2023-04-24T09:31:20;10.70;;;9.50;;
66870;SDS011;53780;44.998;9.926;2023-04-24T09:34:26;10.75;;;8.65;;
66870;SDS011;53780;44.998;9.926;2023-04-24T09:37:32;11.20;;;9.65;;
66870;SDS011;53780;44.998;9.926;2023-04-24T09:40:41;9.23;;;8.23;;
66870;SDS011;53780;44.998;9.926;2023-04-24T09:43:45;11.68;;;9.10;;
66870;SDS011;53780;44.998;9.926;2023-04-24T09:46:59;9.83;;;7.87;;
66870;SDS011;53780;44.998;9.926;2023-04-24T09:50:13;9.98;;;8.98;;
66870;SDS011;53780;44.998;9.926;2023-04-24T09:53:19;13.63;;;9.13;;
66870;SDS011;53780;44.998;9.926;2023-04-24T09:56:27;10.32;;;8.38;;
66870;SDS011;53780;44.998;9.926;2023-04-24T09:59:31;11.13;;;9.32;;
66870;SDS011;53780;44.998;9.926;2023-04-24T10:02:35;9.83;;;8.93;;
66870;SDS011;53780;44.998;9.926;2023-04-24T10:05:39;11.00;;;8.95;;
66870;SDS011;53780;44.998;9.926;2023-04-24T10:08:44;11.45;;;9.40;;
66870;SDS011;53780;44.998;9.926;2023-04-24T10:11:50;10.18;;;8.98;;
66870;SDS011;53780;44.998;9.926;2023-04-24T10:14:54;11.35;;;10.15;;
66870;SDS011;53780;44.998;9.926;2023-04-24T10:17:59;8.77;;;7.80;;
66870;SDS011;53780;44.998;9.926;2023-04-24T10:21:03;8.75;;;7.35;;
66870;SDS011;53780;44.998;9.926;2023-04-24T10:24:08;9.25;;;7.78;;
66870;SDS011;53780;44.998;9.926;2023-04-24T10:27:12;10.07;;;8.10;;
66870;SDS011;53780;44.998;9.926;2023-04-24T10:30:19;10.00;;;7.95;;
66870;SDS011;53780;44.998;9.926;2023-04-24T10:33:24;8.40;;;7.20;;
66870;SDS011;53780;44.998;9.926;2023-04-24T10:36:29;10.27;;;7.05;;
66870;SDS011;53780;44.998;9.926;2023-04-24T10:39:36;9.02;;;6.88;;
66870;SDS011;53780;44.998;9.926;2023-04-24T10:42:40;8.73;;;6.80;;
66870;SDS011;53780;44.998;9.926;2023-04-24T10:46:00;8.82;;;6.85;;
66870;SDS011;53780;44.998;9.926;2023-04-24T10:49:05;10.80;;;6.50;;
66870;SDS011;53780;44.998;9.926;2023-04-24T10:52:11;8.88;;;5.75;;
66870;SDS011;53780;44.998;9.926;2023-04-24T10:55:17;9.63;;;6.35;;
66870;SDS011;53780;44.998;9.926;2023-04-24T10:58:50;8.23;;;6.40;;
66870;SDS011;53780;44.998;9.926;2023-04-24T11:01:56;7.72;;;5.13;;
66870;SDS011;53780;44.998;9.926;2023-04-24T11:05:02;8.47;;;5.77;;
66870;SDS011;53780;44.998;9.926;2023-04-24T11:08:14;6.80;;;4.55;;
66870;SDS011;53780;44.998;9.926;2023-04-24T11:11:19;7.00;;;4.10;;
66870;SDS011;53780;44.998;9.926;2023-04-24T11:14:25;6.43;;;4.10;;
66870;SDS011;53780;44.998;9.926;2023-04-24T11:17:29;6.78;;;3.97;;
66870;SDS011;53780;44.998;9.926;2023-04-24T11:20:38;7.40;;;4.70;;
66870;SDS011;53780;44.998;9.926;2023-04-24T11:23:46;7.63;;;4.93;;
66870;SDS011;53780;44.998;9.926;2023-04-24T11:26:58;6.75;;;4.68;;
66870;SDS011;53780;44.998;9.926;2023-04-24T11:30:02;6.55;;;3.90;;
66870;SDS011;53780;44.998;9.926;2023-04-24T11:33:09;7.15;;;4.20;;
66870;SDS011;53780;44.998;9.926;2023-04-24T11:36:13;8.97;;;4.63;;
66870;SDS011;53780;44.998;9.926;2023-04-24T11:39:16;8.68;;;5.00;;
66870;SDS011;53780;44.998;9.926;2023-04-24T11:42:21;8.20;;;5.32;;
66870;SDS011;53780;44.998;9.926;2023-04-24T11:45:27;9.18;;;5.03;;
66870;SDS011;53780;44.998;9.926;2023-04-24T11:48:35;7.40;;;3.80;;
66870;SDS011;53780;44.998;9.926;2023-04-24T11:51:43;7.80;;;4.30;;
66870;SDS011;53780;44.998;9.926;2023-04-24T11:54:50;5.78;;;2.90;;
66870;SDS011;53780;44.998;9.926;2023-04-24T11:57:55;7.03;;;3.10;;
66870;SDS011;53780;44.998;9.926;2023-04-24T12:01:00;5.03;;;2.00;;
66870;SDS011;53780;44.998;9.926;2023-04-24T12:04:04;5.47;;;2.40;;
66870;SDS011;53780;44.998;9.926;2023-04-24T12:07:08;5.33;;;2.73;;
66870;SDS011;53780;44.998;9.926;2023-04-24T12:10:13;5.22;;;2.30;;
66870;SDS011;53780;44.998;9.926;2023-04-24T12:13:17;6.32;;;3.15;;
66870;SDS011;53780;44.998;9.926;2023-04-24T12:16:22;5.90;;;3.42;;
66870;SDS011;53780;44.998;9.926;2023-04-24T12:19:27;5.72;;;2.60;;
66870;SDS011;53780;44.998;9.926;2023-04-24T12:25:50;6.03;;;3.30;;
66870;SDS011;53780;44.998;9.926;2023-04-24T12:28:54;6.30;;;3.63;;
66870;SDS011;53780;44.998;9.926;2023-04-24T12:31:58;6.63;;;3.40;;
66870;SDS011;53780;44.998;9.926;2023-04-24T12:35:03;7.10;;;4.10;;
66870;SDS011;53780;44.998;9.926;2023-04-24T12:38:10;5.50;;;3.00;;
66870;SDS011;53780;44.998;9.926;2023-04-24T12:41:18;6.05;;;2.97;;
66870;SDS011;53780;44.998;9.926;2023-04-24T12:44:32;6.25;;;2.90;;
66870;SDS011;53780;44.998;9.926;2023-04-24T12:47:38;4.90;;;2.67;;
66870;SDS011;53780;44.998;9.926;2023-04-24T12:50:43;3.90;;;2.05;;
66870;SDS011;53780;44.998;9.926;2023-04-24T12:53:47;5.37;;;2.43;;
66870;SDS011;53780;44.998;9.926;2023-04-24T12:56:51;4.20;;;2.13;;
66870;SDS011;53780;44.998;9.926;2023-04-24T12:59:55;5.32;;;2.50;;
66870;SDS011;53780;44.998;9.926;2023-04-24T13:03:00;7.43;;;1.98;;
66870;SDS011;53780;44.998;9.926;2023-04-24T13:06:04;3.40;;;1.70;;
66870;SDS011;53780;44.998;9.926;2023-04-24T13:09:08;4.57;;;1.50;;
66870;SDS011;53780;44.998;9.926;2023-04-24T13:12:13;5.57;;;1.80;;
66870;SDS011;53780;44.998;9.926;2023-04-24T13:15:17;5.15;;;1.73;;
66870;SDS011;53780;44.998;9.926;2023-04-24T13:18:21;4.13;;;1.45;;
66870;SDS011;53780;44.998;9.926;2023-04-24T13:21:24;4.00;;;1.20;;
66870;SDS011;53780;44.998;9.926;2023-04-24T13:24:29;3.00;;;1.20;;
66870;SDS011;53780;44.998;9.926;2023-04-24T13:27:34;4.68;;;1.42;;
66870;SDS011;53780;44.998;9.926;2023-04-24T13:30:38;4.60;;;1.10;;
66870;SDS011;53780;44.998;9.926;2023-04-24T13:33:42;1.85;;;0.50;;
66870;SDS011;53780;44.998;9.926;2023-04-24T13:36:45;2.15;;;0.50;;
66870;SDS011;53780;44.998;9.926;2023-04-24T13:39:49;1.70;;;0.47;;
66870;SDS011;53780;44.998;9.926;2023-04-24T13:42:54;1.77;;;0.40;;
66870;SDS011;53780;44.998;9.926;2023-04-24T13:45:58;2.25;;;0.50;;
66870;SDS011;53780;44.998;9.926;2023-04-24T13:49:02;2.13;;;0.65;;
66870;SDS011;53780;44.998;9.926;2023-04-24T13:52:07;1.90;;;0.43;;
66870;SDS011;53780;44.998;9.926;2023-04-24T13:55:11;1.20;;;0.20;;
66870;SDS011;53780;44.998;9.926;2023-04-24T13:58:15;1.13;;;0.20;;
66870;SDS011;53780;44.998;9.926;2023-04-24T14:01:19;2.80;;;0.50;;
66870;SDS011;53780;44.998;9.926;2023-04-24T14:04:24;3.35;;;0.60;;
66870;SDS011;53780;44.998;9.926;2023-04-24T14:07:29;2.20;;;0.40;;
66870;SDS011;53780;44.998;9.926;2023-04-24T14:10:32;2.43;;;0.40;;
66870;SDS011;53780;44.998;9.926;2023-04-24T14:13:36;4.40;;;1.20;;
66870;SDS011;53780;44.998;9.926;2023-04-24T14:16:44;2.58;;;0.60;;
66870;SDS011;53780;44.998;9.926;2023-04-24T14:19:48;4.25;;;0.40;;
66870;SDS011;53780;44.998;9.926;2023-04-24T14:22:55;1.70;;;0.30;;
66870;SDS011;53780;44.998;9.926;2023-04-24T14:26:02;2.07;;;0.40;;
66870;SDS011;53780;44.998;9.926;2023-04-24T14:29:06;1.67;;;0.40;;
66870;SDS011;53780;44.998;9.926;2023-04-24T14:32:09;1.13;;;0.30;;
66870;SDS011;53780;44.998;9.926;2023-04-24T14:35:14;1.77;;;0.30;;
66870;SDS011;53780;44.998;9.926;2023-04-24T14:38:18;1.92;;;0.40;;
66870;SDS011;53780;44.998;9.926;2023-04-24T14:41:22;3.10;;;0.50;;
66870;SDS011;53780;44.998;9.926;2023-04-24T14:44:25;1.55;;;0.30;;
66870;SDS011;53780;44.998;9.926;2023-04-24T14:47:29;1.75;;;0.43;;
66870;SDS011;53780;44.998;9.926;2023-04-24T14:50:33;1.45;;;0.30;;
66870;SDS011;53780;44.998;9.926;2023-04-24T14:53:37;1.90;;;0.40;;
66870;SDS011;53780;44.998;9.926;2023-04-24T14:56:40;1.80;;;0.40;;
66870;SDS011;53780;44.998;9.926;2023-04-24T14:59:46;2.22;;;0.50;;
66870;SDS011;53780;44.998;9.926;2023-04-24T15:02:50;2.33;;;0.38;;
66870;SDS011;53780;44.998;9.926;2023-04-24T15:05:54;2.08;;;0.30;;
66870;SDS011;53780;44.998;9.926;2023-04-24T15:08:58;2.50;;;0.30;;
66870;SDS011;53780;44.998;9.926;2023-04-24T15:12:01;1.50;;;0.30;;
66870;SDS011;53780;44.998;9.926;2023-04-24T15:15:06;2.85;;;0.50;;
66870;SDS011;53780;44.998;9.926;2023-04-24T15:18:11;2.03;;;0.30;;
66870;SDS011;53780;44.998;9.926;2023-04-24T15:21:15;1.50;;;0.30;;
66870;SDS011;53780;44.998;9.926;2023-04-24T15:24:19;2.00;;;0.40;;
66870;SDS011;53780;44.998;9.926;2023-04-24T15:27:23;1.53;;;0.30;;
66870;SDS011;53780;44.998;9.926;2023-04-24T15:30:27;2.13;;;0.47;;
66870;SDS011;53780;44.998;9.926;2023-04-24T15:33:32;2.92;;;0.47;;
66870;SDS011;53780;44.998;9.926;2023-04-24T15:36:36;1.40;;;0.30;;
66870;SDS011;53780;44.998;9.926;2023-04-24T15:39:39;1.70;;;0.30;;
66870;SDS011;53780;44.998;9.926;2023-04-24T15:42:44;1.53;;;0.30;;
66870;SDS011;53780;44.998;9.926;2023-04-24T15:45:49;1.73;;;0.30;;
66870;SDS011;53780;44.998;9.926;2023-04-24T15:48:53;2.30;;;0.30;;
66870;SDS011;53780;44.998;9.926;2023-04-24T15:51:57;1.52;;;0.30;;
66870;SDS011;53780;44.998;9.926;2023-04-24T15:55:02;1.58;;;0.30;;
66870;SDS011;53780;44.998;9.926;2023-04-24T15:58:06;3.10;;;0.40;;
66870;SDS011;53780;44.998;9.926;2023-04-24T16:01:11;2.47;;;0.40;;
66870;SDS011;53780;44.998;9.926;2023-04-24T16:04:15;1.88;;;0.40;;
66870;SDS011;53780;44.998;9.926;2023-04-24T16:07:18;2.33;;;0.50;;
66870;SDS011;53780;44.998;9.926;2023-04-24T16:10:22;4.13;;;0.30;;
66870;SDS011;53780;44.998;9.926;2023-04-24T16:13:26;1.70;;;0.40;;
66870;SDS011;53780;44.998;9.926;2023-04-24T16:16:31;2.72;;;0.30;;
66870;SDS011;53780;44.998;9.926;2023-04-24T16:19:35;2.35;;;0.40;;
66870;SDS011;53780;44.998;9.926;2023-04-24T16:22:39;2.60;;;0.40;;
66870;SDS011;53780;44.998;9.926;2023-04-24T16:25:43;2.47;;;0.40;;
66870;SDS011;53780;44.998;9.926;2023-04-24T16:28:47;2.20;;;0.70;;
66870;SDS011;53780;44.998;9.926;2023-04-24T16:31:50;2.85;;;0.30;;
66870;SDS011;53780;44.998;9.926;2023-04-24T16:34:54;1.77;;;0.32;;
66870;SDS011;53780;44.998;9.926;2023-04-24T16:37:57;2.38;;;0.40;;
66870;SDS011;53780;44.998;9.926;2023-04-24T16:41:01;2.78;;;0.40;;
66870;SDS011;53780;44.998;9.926;2023-04-24T16:44:06;4.13;;;0.50;;
66870;SDS011;53780;44.998;9.926;2023-04-24T16:47:11;2.97;;;0.50;;
66870;SDS011;53780;44.998;9.926;2023-04-24T16:50:17;1.83;;;0.40;;
66870;SDS011;53780;44.998;9.926;2023-04-24T16:53:20;2.22;;;0.40;;
66870;SDS011;53780;44.998;9.926;2023-04-24T16:56:24;1.80;;;0.40;;
66870;SDS011;53780;44.998;9.926;2023-04-24T16:59:28;2.07;;;0.40;;
66870;SDS011;53780;44.998;9.926;2023-04-24T17:02:36;2.15;;;0.45;;
66870;SDS011;53780;44.998;9.926;2023-04-24T17:05:40;2.45;;;0.47;;
66870;SDS011;53780;44.998;9.926;2023-04-24T17:08:44;2.90;;;0.50;;
66870;SDS011;53780;44.998;9.926;2023-04-24T17:11:48;1.73;;;0.40;;
66870;SDS011;53780;44.998;9.926;2023-04-24T17:14:51;2.10;;;0.40;;
66870;SDS011;53780;44.998;9.926;2023-04-24T17:17:56;2.28;;;0.47;;
66870;SDS011;53780;44.998;9.926;2023-04-24T17:21:00;2.95;;;0.50;;
66870;SDS011;53780;44.998;9.926;2023-04-24T17:24:04;1.98;;;0.47;;
66870;SDS011;53780;44.998;9.926;2023-04-24T17:27:08;1.92;;;0.50;;
66870;SDS011;53780;44.998;9.926;2023-04-24T17:30:13;1.43;;;0.30;;
66870;SDS011;53780;44.998;9.926;2023-04-24T17:33:18;3.05;;;0.45;;
66870;SDS011;53780;44.998;9.926;2023-04-24T17:36:21;1.92;;;0.30;;
66870;SDS011;53780;44.998;9.926;2023-04-24T17:39:25;1.88;;;0.32;;
66870;SDS011;53780;44.998;9.926;2023-04-24T17:42:29;2.15;;;0.30;;
66870;SDS011;53780;44.998;9.926;2023-04-24T17:45:32;1.37;;;0.20;;
66870;SDS011;53780;44.998;9.926;2023-04-24T17:48:37;5.40;;;2.25;;
66870;SDS011;53780;44.998;9.926;2023-04-24T17:51:41;3.30;;;1.00;;
66870;SDS011;53780;44.998;9.926;2023-04-24T17:54:45;5.03;;;0.98;;
66870;SDS011;53780;44.998;9.926;2023-04-24T17:57:51;2.75;;;0.70;;
66870;SDS011;53780;44.998;9.926;2023-04-24T18:00:55;4.40;;;0.90;;
66870;SDS011;53780;44.998;9.926;2023-04-24T18:04:00;4.65;;;0.90;;
66870;SDS011;53780;44.998;9.926;2023-04-24T18:07:03;3.28;;;0.80;;
66870;SDS011;53780;44.998;9.926;2023-04-24T18:10:07;4.53;;;0.88;;
66870;SDS011;53780;44.998;9.926;2023-04-24T18:13:11;4.40;;;1.05;;
66870;SDS011;53780;44.998;9.926;2023-04-24T18:16:16;4.80;;;1.00;;
66870;SDS011;53780;44.998;9.926;2023-04-24T18:19:20;4.85;;;1.10;;
66870;SDS011;53780;44.998;9.926;2023-04-24T18:22:23;7.20;;;1.20;;
66870;SDS011;53780;44.998;9.926;2023-04-24T18:25:27;4.50;;;0.90;;
66870;SDS011;53780;44.998;9.926;2023-04-24T18:28:31;6.40;;;1.27;;
66870;SDS011;53780;44.998;9.926;2023-04-24T18:31:37;4.73;;;1.03;;
66870;SDS011;53780;44.998;9.926;2023-04-24T18:34:41;6.25;;;1.38;;